Time;durP1;ratioP1;P1;durP2;ratioP2;P2;SDS_P1;SDS_P2;PMS_P1;PMS_P2;Temp;Humidity;BMP_temperature;BMP_pressure;BME280_temperature;BME280_humidity;BME280_pressure;Samples;Min_cycle;Max_cycle;Signal;HPM_P1;HPM_P2
2023/12/15 00:02:19;;;;;;;4.68;2.33;;;;;;;18.87;41.65;102640.91;5068500;28;20165;-71
2023/12/15 00:04:45;;;;;;;4.60;2.20;;;;;;;18.89;41.99;102649.56;5069293;28;20036;-71
2023/12/15 00:07:10;;;;;;;5.60;2.33;;;;;;;18.78;42.19;102639.56;5069169;28;20123;-71
2023/12/15 00:09:35;;;;;;;4.57;2.20;;;;;;;18.85;42.03;102656.00;5067916;28;20034;-71
2023/12/15 00:12:00;;;;;;;5.50;2.50;;;;;;;18.79;42.18;102651.00;5067978;28;20037;-72
2023/12/15 00:14:26;;;;;;;4.25;2.13;;;;;;;18.77;42.07;102647.59;5069171;28;20166;-72
2023/12/15 00:16:51;;;;;;;4.22;2.03;;;;;;;18.85;42.26;102688.53;5068978;28;20036;-71
2023/12/15 00:19:16;;;;;;;5.03;2.20;;;;;;;18.83;41.95;102684.22;5068503;28;20029;-71
2023/12/15 00:21:41;;;;;;;5.95;2.47;;;;;;;18.82;42.09;102682.53;5068974;28;20039;-71
2023/12/15 00:24:08;;;;;;;5.25;2.30;;;;;;;18.72;42.15;102676.03;5068692;28;20448;-72
2023/12/15 00:26:34;;;;;;;4.38;2.10;;;;;;;18.72;42.08;102662.84;5068603;28;20468;-71
2023/12/15 00:29:00;;;;;;;5.82;2.55;;;;;;;18.75;42.05;102681.16;5068445;28;20107;-71
2023/12/15 00:31:25;;;;;;;5.22;2.67;;;;;;;18.70;42.28;102672.66;5068614;28;20132;-71
2023/12/15 00:33:50;;;;;;;6.05;2.42;;;;;;;18.77;42.23;102679.28;5067897;28;20067;-71
2023/12/15 00:36:16;;;;;;;6.72;2.50;;;;;;;18.77;42.17;102682.78;5069130;28;20033;-72
2023/12/15 00:38:41;;;;;;;4.68;2.40;;;;;;;18.76;41.98;102674.94;5068752;28;20032;-71
2023/12/15 00:41:06;;;;;;;4.75;2.53;;;;;;;18.70;42.07;102670.00;5068674;28;20033;-69
2023/12/15 00:43:31;;;;;;;5.10;2.40;;;;;;;18.73;42.14;102678.59;5068551;28;20028;-70
2023/12/15 00:45:57;;;;;;;6.17;2.73;;;;;;;18.65;41.99;102670.25;5068893;28;20037;-70
2023/12/15 00:48:22;;;;;;;5.15;2.38;;;;;;;18.64;41.97;102677.34;5068156;28;20262;-71
2023/12/15 00:50:47;;;;;;;5.30;2.65;;;;;;;18.59;42.20;102665.31;5068217;28;20021;-71
2023/12/15 00:53:13;;;;;;;6.70;2.60;;;;;;;18.70;42.10;102686.69;5068017;28;20024;-70
2023/12/15 00:55:38;;;;;;;5.72;2.80;;;;;;;18.60;42.14;102667.84;5067755;28;20028;-71
2023/12/15 00:58:04;;;;;;;5.80;2.40;;;;;;;18.64;42.20;102685.25;5068359;28;20036;-71
2023/12/15 01:00:29;;;;;;;4.50;2.35;;;;;;;18.65;42.19;102688.75;5067641;28;20028;-71
2023/12/15 01:02:54;;;;;;;4.95;2.40;;;;;;;18.65;42.05;102692.22;5067638;28;20094;-71
2023/12/15 01:05:19;;;;;;;6.00;3.00;;;;;;;18.55;42.32;102684.88;5068150;28;20029;-72
2023/12/15 01:07:45;;;;;;;6.03;2.90;;;;;;;18.62;42.41;102708.22;5068641;28;20326;-71
2023/12/15 01:10:10;;;;;;;7.00;3.25;;;;;;;18.53;42.17;102692.88;5068143;28;20265;-72
2023/12/15 01:12:35;;;;;;;5.03;2.80;;;;;;;18.59;42.15;102700.47;5068000;28;20028;-70
2023/12/15 01:15:01;;;;;;;5.05;2.70;;;;;;;18.62;42.08;102707.38;5068020;28;20115;-71
2023/12/15 01:17:26;;;;;;;5.47;2.78;;;;;;;18.52;41.89;102698.25;5068484;28;20028;-70
2023/12/15 01:19:51;;;;;;;6.17;2.93;;;;;;;18.52;42.07;102706.16;5068231;28;20056;-71
2023/12/15 01:22:16;;;;;;;4.88;2.75;;;;;;;18.60;42.10;102720.66;5068035;28;20289;-72
2023/12/15 01:24:42;;;;;;;5.57;2.88;;;;;;;18.58;42.29;102717.28;5067993;28;20397;-71
2023/12/15 01:27:07;;;;;;;4.77;2.70;;;;;;;18.57;42.21;102718.19;5068290;28;20028;-71
2023/12/15 01:29:32;;;;;;;5.75;2.83;;;;;;;18.56;42.40;102723.56;5067961;28;20277;-71
2023/12/15 01:31:57;;;;;;;5.33;2.90;;;;;;;18.54;42.23;102721.00;5067521;28;20025;-71
2023/12/15 01:34:23;;;;;;;4.75;2.80;;;;;;;18.52;42.17;102720.25;5068016;28;20729;-72
2023/12/15 01:36:48;;;;;;;5.00;2.77;;;;;;;18.56;42.22;102728.84;5067268;28;20060;-70
2023/12/15 01:39:13;;;;;;;5.40;2.70;;;;;;;18.44;42.30;102711.88;5068170;28;20258;-70
2023/12/15 01:41:38;;;;;;;4.70;2.70;;;;;;;18.52;42.19;102729.94;5067885;28;20692;-71
2023/12/15 01:44:04;;;;;;;5.32;2.85;;;;;;;18.54;42.33;102731.56;5049645;28;20285;-72
2023/12/15 01:46:29;;;;;;;5.80;3.33;;;;;;;18.37;42.22;102721.88;5067033;28;20499;-72
2023/12/15 01:48:54;;;;;;;4.82;2.90;;;;;;;18.50;42.12;102740.59;5067292;28;20040;-71
2023/12/15 01:51:20;;;;;;;4.53;2.58;;;;;;;18.51;41.92;102731.72;5066912;28;20111;-71
2023/12/15 01:53:45;;;;;;;4.50;2.50;;;;;;;18.45;42.16;102730.28;5067392;28;20518;-72
2023/12/15 01:56:11;;;;;;;5.63;2.60;;;;;;;18.36;42.08;102724.59;5066975;28;20764;-71
2023/12/15 01:58:36;;;;;;;4.43;2.42;;;;;;;18.48;42.28;102750.38;5066995;28;20112;-71
2023/12/15 02:01:02;;;;;;;4.88;2.42;;;;;;;18.51;42.33;102754.63;5066684;28;20032;-71
2023/12/15 02:03:27;;;;;;;4.80;2.50;;;;;;;18.40;42.20;102742.84;5067116;28;20040;-70
2023/12/15 02:05:52;;;;;;;5.30;2.90;;;;;;;18.38;42.14;102741.25;5064621;28;20036;-71
2023/12/15 02:08:17;;;;;;;4.90;2.70;;;;;;;18.47;42.41;102765.34;5066527;28;20571;-71
2023/12/15 02:10:43;;;;;;;5.28;2.90;;;;;;;18.47;42.40;102759.25;5065020;28;20273;-71
2023/12/15 02:13:08;;;;;;;4.85;2.60;;;;;;;18.37;42.21;102756.19;5066802;28;20031;-71
2023/12/15 02:15:33;;;;;;;4.17;2.60;;;;;;;18.33;42.28;102751.19;5066663;28;20032;-71
2023/12/15 02:17:59;;;;;;;4.75;2.40;;;;;;;18.43;42.40;102757.69;5066950;28;20265;-72
2023/12/15 02:20:24;;;;;;;4.65;2.58;;;;;;;18.34;42.23;102742.31;5066825;28;20046;-71
2023/12/15 02:22:50;;;;;;;4.45;2.42;;;;;;;18.43;42.50;102766.44;5066832;28;20090;-70
2023/12/15 02:25:15;;;;;;;4.63;2.50;;;;;;;18.41;42.48;102765.69;5066702;28;20051;-71
2023/12/15 02:27:40;;;;;;;5.25;2.70;;;;;;;18.29;42.53;102750.47;5065959;28;20059;-71
2023/12/15 02:30:06;;;;;;;4.03;2.47;;;;;;;18.40;42.35;102774.53;5066561;28;20029;-72
2023/12/15 02:32:31;;;;;;;4.35;2.30;;;;;;;18.39;42.48;102774.59;5048549;28;20028;-69
2023/12/15 02:34:57;;;;;;;4.45;2.40;;;;;;;18.37;42.33;102779.13;5066980;28;20078;-71
2023/12/15 02:37:22;;;;;;;4.43;2.60;;;;;;;18.30;42.58;102770.66;5066842;28;20047;-71
2023/12/15 02:39:47;;;;;;;4.25;2.60;;;;;;;18.39;42.41;102796.59;5066082;28;20044;-71
2023/12/15 02:42:13;;;;;;;5.10;2.47;;;;;;;18.31;42.63;102798.78;5066958;28;20036;-70
2023/12/15 02:44:38;;;;;;;4.18;2.25;;;;;;;18.36;42.72;102788.84;5066379;28;20028;-71
2023/12/15 02:47:03;;;;;;;4.60;2.45;;;;;;;18.27;42.28;102784.84;5066233;28;20059;-71
2023/12/15 02:49:29;;;;;;;4.57;2.60;;;;;;;18.24;42.61;102786.81;5066680;28;20040;-71
2023/12/15 02:51:54;;;;;;;4.30;2.53;;;;;;;18.36;42.19;102809.94;5066656;28;20033;-70
2023/12/15 02:54:19;;;;;;;4.25;2.40;;;;;;;18.37;42.34;102803.72;5066030;28;20028;-71
2023/12/15 02:56:45;;;;;;;4.15;2.33;;;;;;;18.29;42.50;102798.84;5065867;28;20107;-71
2023/12/15 02:59:10;;;;;;;4.82;2.58;;;;;;;18.28;42.42;102801.56;5066471;28;20480;-70
2023/12/15 03:01:35;;;;;;;5.18;2.80;;;;;;;18.27;42.66;102797.22;5066483;28;20471;-71
2023/12/15 03:04:00;;;;;;;4.38;2.65;;;;;;;18.37;42.57;102832.75;5065205;28;20044;-71
2023/12/15 03:06:26;;;;;;;4.03;2.40;;;;;;;18.34;42.50;102832.94;5065643;28;20090;-71
2023/12/15 03:08:51;;;;;;;4.28;2.42;;;;;;;18.28;42.58;102825.31;5066045;28;20029;-70
2023/12/15 03:11:17;;;;;;;4.80;2.65;;;;;;;18.31;42.56;102831.28;5065689;28;20025;-71
2023/12/15 03:13:42;;;;;;;5.95;3.00;;;;;;;18.32;42.54;102840.06;5065747;28;20120;-71
2023/12/15 03:16:11;;;;;;;4.95;2.53;;;;;;;18.25;42.53;102831.59;5066069;28;20028;-71
2023/12/15 03:18:37;;;;;;;5.45;2.80;;;;;;;18.34;42.25;102847.91;5065876;28;20043;-71
2023/12/15 03:21:03;;;;;;;5.25;2.65;;;;;;;18.27;42.69;102834.16;5066239;28;20037;-72
2023/12/15 03:23:28;;;;;;;5.68;2.70;;;;;;;18.16;42.74;102820.66;5065495;28;20388;-71
2023/12/15 03:25:54;;;;;;;5.28;2.80;;;;;;;18.23;42.62;102841.41;5065918;28;20028;-71
2023/12/15 03:28:19;;;;;;;5.43;2.90;;;;;;;18.23;42.42;102853.72;5065635;28;20506;-71
2023/12/15 03:30:44;;;;;;;5.97;3.13;;;;;;;18.28;42.28;102863.13;5066111;28;20037;-71
2023/12/15 03:33:10;;;;;;;5.25;2.78;;;;;;;18.28;42.77;102862.28;5065531;28;20605;-70
2023/12/15 03:35:35;;;;;;;6.15;3.38;;;;;;;18.22;42.65;102857.31;5066342;28;20032;-70
2023/12/15 03:38:02;;;;;;;6.18;3.22;;;;;;;18.25;42.60;102871.19;5065487;28;20044;-71
2023/12/15 03:40:28;;;;;;;5.05;2.80;;;;;;;18.29;42.51;102888.59;5047846;28;20384;-70
2023/12/15 03:42:53;;;;;;;5.30;2.97;;;;;;;18.29;42.46;102888.59;5066031;28;20040;-71
2023/12/15 03:45:18;;;;;;;5.73;3.00;;;;;;;18.23;42.17;102877.47;5066162;28;20033;-70
2023/12/15 03:47:43;;;;;;;5.73;3.13;;;;;;;18.20;42.58;102881.13;5065148;28;20289;-70
2023/12/15 03:50:09;;;;;;;5.72;3.00;;;;;;;18.27;42.40;102893.06;5065297;28;20257;-71
2023/12/15 03:52:34;;;;;;;5.85;3.25;;;;;;;18.18;42.71;102872.41;5065382;28;20036;-70
2023/12/15 03:54:59;;;;;;;6.32;3.13;;;;;;;18.26;42.56;102891.38;5065694;28;20032;-72
2023/12/15 03:57:25;;;;;;;5.30;3.00;;;;;;;18.17;42.47;102872.53;5065195;28;20037;-71
2023/12/15 03:59:50;;;;;;;5.65;3.47;;;;;;;18.13;42.75;102867.41;5065726;28;20297;-72
2023/12/15 04:02:15;;;;;;;5.72;3.17;;;;;;;18.22;42.82;102892.47;5064756;28;20044;-71
2023/12/15 04:04:42;;;;;;;7.35;3.85;;;;;;;18.21;42.87;102895.16;5066706;28;20039;-72
2023/12/15 04:07:07;;;;;;;6.13;3.25;;;;;;;18.13;42.53;102879.72;5085859;28;20028;-71
2023/12/15 04:09:32;;;;;;;5.68;3.22;;;;;;;18.22;42.75;102899.53;5089675;28;20035;-72
2023/12/15 04:11:58;;;;;;;5.53;3.30;;;;;;;18.18;42.89;102895.31;5089925;28;20055;-72
2023/12/15 04:14:23;;;;;;;6.10;3.63;;;;;;;18.20;42.92;102907.53;5089501;28;20028;-71
2023/12/15 04:16:48;;;;;;;5.50;3.33;;;;;;;18.20;42.94;102914.56;5089394;28;20752;-71
2023/12/15 04:19:13;;;;;;;5.93;3.60;;;;;;;18.13;42.80;102904.34;5089692;28;20272;-72
2023/12/15 04:21:39;;;;;;;7.63;3.70;;;;;;;18.14;42.67;102897.25;5089319;28;20041;-72
2023/12/15 04:24:04;;;;;;;5.17;3.40;;;;;;;18.12;42.71;102896.50;5088577;28;20040;-70
2023/12/15 04:26:29;;;;;;;5.80;3.80;;;;;;;18.12;42.96;102902.63;5089474;28;20260;-72
2023/12/15 04:28:55;;;;;;;6.80;3.97;;;;;;;18.12;42.86;102901.78;5088683;28;20089;-71
2023/12/15 04:31:20;;;;;;;5.97;3.53;;;;;;;18.16;42.68;102923.56;5068691;28;20055;-71
2023/12/15 04:33:45;;;;;;;6.03;3.42;;;;;;;18.17;42.80;102917.38;5068510;28;20380;-72
2023/12/15 04:36:11;;;;;;;6.55;4.00;;;;;;;18.14;42.93;102918.38;5068917;28;20114;-71
2023/12/15 04:38:37;;;;;;;6.80;3.90;;;;;;;18.18;42.84;102927.00;5068672;28;20499;-71
2023/12/15 04:41:02;;;;;;;7.15;4.15;;;;;;;18.18;42.89;102932.25;5069060;28;20040;-72
2023/12/15 04:43:28;;;;;;;6.97;4.35;;;;;;;18.13;42.95;102936.00;5068626;28;20045;-72
2023/12/15 04:45:54;;;;;;;7.20;4.15;;;;;;;18.15;42.94;102929.78;5068787;28;20044;-71
2023/12/15 04:48:19;;;;;;;7.55;4.50;;;;;;;18.09;42.83;102920.38;5068544;28;20099;-73
2023/12/15 04:50:45;;;;;;;7.95;4.82;;;;;;;18.11;42.89;102921.16;5068596;28;20051;-72
2023/12/15 04:53:10;;;;;;;7.90;4.30;;;;;;;18.09;42.98;102918.59;5068144;28;20025;-72
2023/12/15 04:55:35;;;;;;;7.47;4.32;;;;;;;18.04;42.96;102915.34;5068510;28;20083;-72
2023/12/15 04:58:00;;;;;;;6.83;4.27;;;;;;;18.15;42.90;102935.94;5068543;28;20052;-71
2023/12/15 05:00:26;;;;;;;8.82;5.00;;;;;;;18.16;43.08;102952.59;5067976;28;20769;-72
2023/12/15 05:02:51;;;;;;;7.30;4.25;;;;;;;18.06;42.98;102945.13;5067304;28;20032;-71
2023/12/15 05:05:18;;;;;;;9.15;4.70;;;;;;;18.17;42.89;102962.25;5068913;28;20040;-71
2023/12/15 05:07:44;;;;;;;8.10;4.80;;;;;;;18.05;43.07;102938.13;5068272;28;20415;-72
2023/12/15 05:10:09;;;;;;;9.15;4.88;;;;;;;18.15;42.95;102953.53;5067904;28;20024;-71
2023/12/15 05:12:36;;;;;;;7.78;5.07;;;;;;;18.13;42.94;102950.97;5068434;28;20388;-71
2023/12/15 05:15:03;;;;;;;7.60;4.50;;;;;;;18.07;42.97;102949.47;5068315;28;20033;-71
2023/12/15 05:17:29;;;;;;;7.78;4.75;;;;;;;18.11;42.96;102951.03;5067742;28;20396;-71
2023/12/15 05:19:54;;;;;;;7.40;4.70;;;;;;;18.10;43.11;102945.81;5067626;28;20070;-71
2023/12/15 05:22:19;;;;;;;8.13;5.13;;;;;;;18.09;43.16;102950.25;5067986;28;20032;-71
2023/12/15 05:24:44;;;;;;;8.38;5.07;;;;;;;18.09;42.82;102963.44;5067280;28;20052;-72
2023/12/15 05:27:10;;;;;;;8.23;5.10;;;;;;;18.08;42.84;102964.38;5066087;28;20039;-71
2023/12/15 05:29:42;;;;;;;9.60;5.00;;;;;;;18.05;43.10;102964.50;5067924;28;20036;-71
2023/12/15 05:32:07;;;;;;;7.63;4.68;;;;;;;18.11;42.91;102984.50;5049856;28;20522;-71
2023/12/15 05:34:33;;;;;;;11.32;5.70;;;;;;;18.12;42.76;102980.94;5067551;28;20119;-71
2023/12/15 05:36:58;;;;;;;9.02;5.47;;;;;;;18.02;42.90;102969.09;5067248;28;20036;-73
2023/12/15 05:39:23;;;;;;;7.68;5.28;;;;;;;17.99;42.99;102967.47;5067163;28;20503;-72
2023/12/15 05:41:48;;;;;;;8.77;6.00;;;;;;;18.04;42.97;102981.28;5067237;28;20037;-71
2023/12/15 05:44:14;;;;;;;9.93;6.20;;;;;;;18.11;42.95;102992.41;5067303;28;20404;-71
2023/12/15 05:46:42;;;;;;;9.13;5.97;;;;;;;18.02;42.98;102996.31;5066561;28;20289;-71
2023/12/15 05:49:09;;;;;;;9.93;5.90;;;;;;;18.01;43.11;102996.38;5066868;28;20477;-71
2023/12/15 05:51:34;;;;;;;9.63;6.03;;;;;;;18.10;43.05;103017.06;5068130;28;20062;-71
2023/12/15 05:54:00;;;;;;;8.17;5.33;;;;;;;18.08;43.76;103022.41;5065475;28;20064;-72
2023/12/15 05:56:25;;;;;;;10.25;6.30;;;;;;;18.08;42.99;103022.41;5066387;28;20740;-72
2023/12/15 05:58:50;;;;;;;9.93;5.90;;;;;;;18.06;43.01;103019.00;5066873;28;20028;-71
2023/12/15 06:01:16;;;;;;;7.70;5.95;;;;;;;17.98;43.19;102997.41;5067042;28;20036;-71
2023/12/15 06:03:41;;;;;;;8.63;6.15;;;;;;;18.06;43.34;103004.97;5065867;28;20032;-70
2023/12/15 06:06:07;;;;;;;8.70;6.10;;;;;;;17.97;43.14;102987.78;5066582;28;20048;-70
2023/12/15 06:08:32;;;;;;;9.38;5.30;;;;;;;18.09;43.04;103008.31;5066756;28;20449;-71
2023/12/15 06:10:57;;;;;;;9.02;5.55;;;;;;;18.00;43.20;102982.34;5066362;28;20044;-71
2023/12/15 06:13:23;;;;;;;8.30;5.47;;;;;;;18.11;43.31;102990.63;5066236;28;20069;-71
2023/12/15 06:15:48;;;;;;;7.80;4.88;;;;;;;18.09;43.29;102978.44;5066163;28;20036;-71
2023/12/15 06:18:13;;;;;;;7.40;4.82;;;;;;;18.15;43.19;102995.75;5066333;28;20029;-71
2023/12/15 06:20:38;;;;;;;7.43;4.05;;;;;;;18.15;43.30;102987.84;5066874;28;20119;-71
2023/12/15 06:23:04;;;;;;;6.72;4.45;;;;;;;18.24;43.47;103014.63;5066450;28;20036;-70
2023/12/15 06:25:29;;;;;;;7.78;4.43;;;;;;;18.25;43.33;103015.50;5082484;28;20449;-71
2023/12/15 06:27:54;;;;;;;6.50;3.97;;;;;;;18.31;43.29;103028.41;5086843;28;20115;-71
2023/12/15 06:30:20;;;;;;;6.57;3.95;;;;;;;18.24;43.10;103000.59;5086996;28;20053;-71
2023/12/15 06:32:45;;;;;;;6.88;4.13;;;;;;;18.33;43.42;103017.78;5086810;28;20024;-71
2023/12/15 06:35:11;;;;;;;6.57;4.00;;;;;;;18.33;43.20;103021.28;5068437;28;20024;-72
2023/12/15 06:37:36;;;;;;;6.78;4.10;;;;;;;18.31;43.34;103025.78;5086614;28;20033;-73
2023/12/15 06:40:02;;;;;;;7.23;4.23;;;;;;;18.34;43.19;103032.69;5086271;28;20456;-71
2023/12/15 06:42:29;;;;;;;6.50;4.30;;;;;;;18.38;43.04;103035.09;5086544;28;20273;-72
2023/12/15 06:44:55;;;;;;;6.65;4.13;;;;;;;18.46;43.12;103032.94;5086583;28;20067;-72
2023/12/15 06:47:21;;;;;;;7.30;4.13;;;;;;;18.46;43.38;103029.47;5085770;28;20078;-71
2023/12/15 06:49:46;;;;;;;7.35;4.57;;;;;;;18.50;43.18;103041.59;5086451;28;20024;-71
2023/12/15 06:52:11;;;;;;;7.40;4.32;;;;;;;18.51;43.26;103039.81;5086310;28;20039;-70
2023/12/15 06:54:39;;;;;;;6.18;4.25;;;;;;;18.54;43.29;103039.66;5086835;28;20030;-71
2023/12/15 06:57:06;;;;;;;6.32;4.18;;;;;;;18.48;43.24;103040.78;5086677;28;20119;-71
2023/12/15 06:59:31;;;;;;;8.18;4.40;;;;;;;18.49;43.12;103037.22;5047651;28;20052;-72
2023/12/15 07:01:56;;;;;;;6.93;4.38;;;;;;;18.43;43.08;103038.38;5066017;28;20028;-70
2023/12/15 07:04:21;;;;;;;7.63;4.50;;;;;;;18.59;43.24;103066.69;5065970;28;20106;-71
2023/12/15 07:06:47;;;;;;;7.40;5.22;;;;;;;18.51;43.32;103051.22;5066058;28;20032;-70
2023/12/15 07:09:12;;;;;;;6.65;4.30;;;;;;;18.57;43.34;103072.03;5066186;28;20469;-72
2023/12/15 07:11:39;;;;;;;6.65;4.20;;;;;;;18.42;43.32;103055.16;5066552;28;20116;-71
2023/12/15 07:14:05;;;;;;;6.63;4.60;;;;;;;18.61;43.26;103086.81;5066254;28;20028;-71
2023/12/15 07:16:30;;;;;;;7.70;5.00;;;;;;;18.58;43.25;103086.97;5066003;28;20563;-71
2023/12/15 07:18:55;;;;;;;6.35;4.63;;;;;;;18.61;42.99;103093.88;5077027;28;20042;-72
2023/12/15 07:21:21;;;;;;;7.40;4.28;;;;;;;18.53;43.12;103083.66;5085980;28;20058;-71
2023/12/15 07:23:46;;;;;;;7.28;4.40;;;;;;;18.53;43.22;103082.81;5086108;28;20028;-71
2023/12/15 07:26:11;;;;;;;7.17;4.37;;;;;;;18.54;43.05;103087.19;5065846;28;20461;-70
2023/12/15 07:28:37;;;;;;;7.80;4.55;;;;;;;18.60;43.33;103106.22;5065884;28;20269;-71
2023/12/15 07:31:02;;;;;;;7.33;4.83;;;;;;;18.60;43.11;103108.03;5066511;28;20032;-71
2023/12/15 07:33:27;;;;;;;7.07;5.20;;;;;;;18.54;42.81;103110.94;5065757;28;20335;-72
2023/12/15 07:35:53;;;;;;;8.27;5.35;;;;;;;18.59;43.23;103111.59;5065676;28;20064;-71
2023/12/15 07:38:18;;;;;;;7.63;5.35;;;;;;;18.52;43.09;103094.31;5066180;28;20362;-71
2023/12/15 07:40:43;;;;;;;9.20;5.50;;;;;;;18.53;43.18;103101.31;5066119;28;20051;-71
2023/12/15 07:43:09;;;;;;;8.60;5.50;;;;;;;18.60;43.31;103132.63;5067281;28;20749;-71
2023/12/15 07:45:34;;;;;;;7.80;5.05;;;;;;;18.59;43.29;103130.91;5069777;28;20266;-70
2023/12/15 07:48:00;;;;;;;8.05;5.57;;;;;;;18.52;43.15;103120.72;5051597;28;20079;-71
2023/12/15 07:50:26;;;;;;;9.65;5.82;;;;;;;18.55;43.16;103123.22;5069519;28;20047;-71
2023/12/15 07:52:51;;;;;;;8.25;6.35;;;;;;;18.58;43.34;103116.03;5069290;28;20390;-71
2023/12/15 07:55:18;;;;;;;9.40;6.38;;;;;;;18.52;43.08;103112.78;5069404;28;20032;-71
2023/12/15 07:57:43;;;;;;;12.18;7.18;;;;;;;18.55;43.21;103126.72;5069329;28;20069;-71
2023/12/15 08:00:12;;;;;;;11.38;6.85;;;;;;;18.51;43.25;103122.50;5068590;28;20414;-71
2023/12/15 08:02:38;;;;;;;10.15;6.30;;;;;;;18.51;43.49;103122.50;5068688;28;20036;-71
2023/12/15 08:05:04;;;;;;;9.45;6.38;;;;;;;18.60;43.52;103137.06;5066429;28;20028;-72
2023/12/15 08:07:29;;;;;;;10.20;6.75;;;;;;;18.59;43.61;103138.84;5068827;28;20028;-72
2023/12/15 08:09:54;;;;;;;9.73;7.10;;;;;;;18.60;43.37;103150.28;5069345;28;20075;-71
2023/12/15 08:12:20;;;;;;;10.17;7.23;;;;;;;18.51;43.73;103126.94;5068757;28;20362;-71
2023/12/15 08:14:45;;;;;;;10.77;7.20;;;;;;;18.60;43.47;103153.75;5069787;28;20300;-71
2023/12/15 08:17:10;;;;;;;10.15;6.75;;;;;;;18.54;43.76;103148.78;5077881;28;20063;-71
2023/12/15 08:19:36;;;;;;;11.18;7.30;;;;;;;18.58;43.59;103160.03;5088892;28;20088;-71
2023/12/15 08:22:01;;;;;;;9.60;6.45;;;;;;;18.56;43.87;103157.47;5071114;28;20490;-71
2023/12/15 08:24:27;;;;;;;12.65;7.03;;;;;;;18.51;43.73;103162.13;5089137;28;20055;-71
2023/12/15 08:26:53;;;;;;;10.60;6.90;;;;;;;18.59;43.85;103183.72;5089494;28;20024;-71
2023/12/15 08:29:20;;;;;;;12.00;7.20;;;;;;;18.61;43.84;103183.66;5088634;28;20473;-72
2023/12/15 08:31:45;;;;;;;11.95;7.57;;;;;;;18.59;43.95;103183.72;5089229;28;20059;-71
2023/12/15 08:34:10;;;;;;;9.75;7.32;;;;;;;18.59;43.65;103181.09;5087816;28;20024;-71
2023/12/15 08:36:36;;;;;;;11.43;7.28;;;;;;;18.61;44.15;103199.50;5086969;28;20028;-71
2023/12/15 08:39:01;;;;;;;10.65;7.10;;;;;;;18.62;43.98;103199.44;5067390;28;20036;-71
2023/12/15 08:41:26;;;;;;;10.55;7.45;;;;;;;18.59;44.08;103198.72;5067809;28;20166;-71
2023/12/15 08:43:54;;;;;;;10.20;6.63;;;;;;;18.57;44.00;103211.16;5069135;28;20123;-71
2023/12/15 08:46:19;;;;;;;8.88;6.28;;;;;;;18.64;44.21;103233.69;5067264;28;20052;-71
2023/12/15 08:48:45;;;;;;;10.02;7.07;;;;;;;18.63;44.19;103226.72;5068986;28;20028;-71
2023/12/15 08:51:10;;;;;;;10.30;6.93;;;;;;;18.55;44.19;103218.28;5065315;28;20050;-71
2023/12/15 08:53:35;;;;;;;8.98;6.82;;;;;;;18.64;44.19;103246.91;5066784;28;20496;-71
2023/12/15 08:56:00;;;;;;;11.50;6.85;;;;;;;18.63;44.17;103247.84;5066744;28;20040;-72
2023/12/15 08:58:26;;;;;;;10.00;6.82;;;;;;;18.64;44.21;103253.06;5067872;28;20471;-72
2023/12/15 09:00:51;;;;;;;9.88;6.60;;;;;;;18.63;44.58;103248.69;5067731;28;20032;-71
2023/12/15 09:03:17;;;;;;;9.65;7.00;;;;;;;18.60;44.51;103242.72;5066958;28;20071;-70
2023/12/15 09:05:42;;;;;;;9.75;6.80;;;;;;;18.65;44.40;103248.63;5067118;28;20033;-71
2023/12/15 09:08:08;;;;;;;11.02;7.30;;;;;;;18.59;44.75;103233.06;5066705;28;20040;-72
2023/12/15 09:10:35;;;;;;;9.82;6.53;;;;;;;18.68;44.41;103249.34;5049899;28;20036;-71
2023/12/15 09:13:04;;;;;;;9.60;7.25;;;;;;;18.70;44.43;103254.56;5066951;28;20386;-72
2023/12/15 09:15:30;;;;;;;10.38;6.45;;;;;;;18.62;44.61;103236.41;5066475;28;20036;-71
2023/12/15 09:17:55;;;;;;;9.40;6.82;;;;;;;18.61;44.74;103241.75;5067502;28;20059;-71
2023/12/15 09:20:20;;;;;;;9.77;6.97;;;;;;;18.68;44.69;103251.97;5065847;28;20035;-71
2023/12/15 09:22:46;;;;;;;9.68;6.65;;;;;;;18.69;44.71;103263.41;5067088;28;20093;-71
2023/12/15 09:25:12;;;;;;;8.85;6.18;;;;;;;18.65;44.73;103265.31;5067185;28;20028;-71
2023/12/15 09:27:37;;;;;;;10.73;6.95;;;;;;;18.70;44.71;103280.97;5067660;28;20445;-72
2023/12/15 09:30:03;;;;;;;12.50;7.35;;;;;;;18.60;44.60;103267.31;5067298;28;20039;-72
2023/12/15 09:32:28;;;;;;;9.93;7.00;;;;;;;18.68;44.66;103282.84;5067417;28;20024;-71
2023/12/15 09:34:53;;;;;;;10.23;6.78;;;;;;;18.62;44.56;103268.09;5067095;28;20393;-72
2023/12/15 09:37:19;;;;;;;10.23;7.05;;;;;;;18.59;44.93;103270.88;5067691;28;20028;-72
2023/12/15 09:39:44;;;;;;;10.95;7.18;;;;;;;18.59;44.79;103281.44;5067464;28;20459;-72
2023/12/15 09:42:09;;;;;;;10.35;7.03;;;;;;;18.60;44.99;103290.25;5067194;28;20082;-72
2023/12/15 09:44:35;;;;;;;8.77;6.97;;;;;;;18.67;44.98;103313.69;5067410;28;20040;-72
2023/12/15 09:47:01;;;;;;;9.98;7.00;;;;;;;18.69;44.76;103313.59;5066811;28;20048;-72
2023/12/15 09:49:27;;;;;;;9.25;6.53;;;;;;;18.64;45.00;103312.94;5067191;28;20047;-73
2023/12/15 09:51:53;;;;;;;10.35;6.85;;;;;;;18.60;44.98;103314.03;5065894;28;20039;-72
2023/12/15 09:54:19;;;;;;;9.30;6.15;;;;;;;18.71;45.00;103342.56;5066457;28;20036;-71
2023/12/15 09:56:46;;;;;;;10.23;7.15;;;;;;;18.70;44.83;103346.16;5066470;28;20028;-72
2023/12/15 09:59:12;;;;;;;10.38;7.07;;;;;;;18.70;45.05;103343.53;5067154;28;20037;-72
2023/12/15 10:01:38;;;;;;;9.48;6.82;;;;;;;18.63;44.80;103337.66;5066675;28;20028;-71
2023/12/15 10:04:05;;;;;;;10.55;7.45;;;;;;;18.61;45.18;103337.72;5065549;28;20047;-72
2023/12/15 10:06:36;;;;;;;8.75;6.40;;;;;;;18.71;44.78;103350.50;5065610;28;20070;-72
2023/12/15 10:09:03;;;;;;;10.23;6.55;;;;;;;18.64;44.96;103348.16;5067514;28;20036;-71
2023/12/15 10:11:32;;;;;;;10.27;6.25;;;;;;;18.62;44.97;103349.97;5067606;28;20035;-73
2023/12/15 10:13:59;;;;;;;9.40;6.60;;;;;;;18.70;45.03;103364.66;5066890;28;20393;-72
2023/12/15 10:16:27;;;;;;;9.65;6.25;;;;;;;18.70;44.82;103367.28;5067053;28;20036;-71
2023/12/15 10:18:52;;;;;;;9.68;6.18;;;;;;;18.68;44.91;103370.00;5065567;28;20031;-72
2023/12/15 10:21:18;;;;;;;9.98;5.85;;;;;;;18.71;45.11;103367.22;5065395;28;20155;-72
2023/12/15 10:23:43;;;;;;;10.57;6.70;;;;;;;18.67;45.00;103363.88;5065996;28;20032;-71
2023/12/15 10:26:08;;;;;;;9.98;6.88;;;;;;;18.73;44.92;103377.72;5066795;28;20040;-71
2023/12/15 10:28:38;;;;;;;11.15;6.40;;;;;;;18.62;44.98;103379.03;5066375;28;21245;-72
2023/12/15 10:31:05;;;;;;;11.38;6.53;;;;;;;18.60;44.94;103375.63;5065707;28;20054;-72
2023/12/15 10:33:32;;;;;;;10.65;6.40;;;;;;;18.69;44.82;103390.19;5066446;28;20025;-71
2023/12/15 10:36:00;;;;;;;8.77;6.30;;;;;;;18.70;45.04;103391.06;5067112;28;20032;-71
2023/12/15 10:38:27;;;;;;;8.32;5.60;;;;;;;18.72;44.92;103405.91;5067097;28;20522;-72
2023/12/15 10:40:54;;;;;;;8.80;6.15;;;;;;;18.65;45.02;103397.41;5066647;28;20024;-73
2023/12/15 10:43:21;;;;;;;8.95;6.38;;;;;;;18.64;45.02;103398.34;5067273;28;20730;-72
2023/12/15 10:45:47;;;;;;;8.70;5.85;;;;;;;18.73;45.03;103406.78;5066230;28;20040;-73
2023/12/15 10:48:13;;;;;;;9.93;5.55;;;;;;;18.61;45.19;103395.81;5065751;28;20067;-72
2023/12/15 10:50:42;;;;;;;9.65;5.65;;;;;;;18.66;44.96;103409.69;5065616;28;20037;-73
2023/12/15 10:53:09;;;;;;;8.32;5.70;;;;;;;18.74;45.02;103419.03;5065945;28;20025;-73
2023/12/15 10:55:37;;;;;;;7.68;5.28;;;;;;;18.75;44.93;103420.78;5065037;28;20029;-73
2023/12/15 10:58:06;;;;;;;8.65;5.50;;;;;;;18.64;44.95;103408.91;5066622;28;20039;-72
2023/12/15 11:00:32;;;;;;;9.57;6.00;;;;;;;18.65;44.83;103412.41;5066126;28;20036;-72
2023/12/15 11:02:58;;;;;;;8.40;5.88;;;;;;;18.63;44.89;103412.47;5065994;28;20028;-73
2023/12/15 11:05:26;;;;;;;10.52;5.63;;;;;;;18.70;44.92;103439.47;5066197;28;20024;-73
2023/12/15 11:07:53;;;;;;;9.55;5.40;;;;;;;18.75;45.06;103447.19;5066049;28;20068;-72
2023/12/15 11:10:18;;;;;;;7.93;5.00;;;;;;;18.75;44.87;103455.97;5066075;28;20032;-73
2023/12/15 11:12:43;;;;;;;9.35;5.85;;;;;;;18.75;44.83;103457.75;5066412;28;20024;-72
2023/12/15 11:15:11;;;;;;;9.02;5.60;;;;;;;18.66;44.86;103443.19;5066023;28;20042;-72
2023/12/15 11:17:58;;;;;;;8.80;5.68;;;;;;;18.76;44.90;103462.13;5063246;28;20048;-72